createdAt,value
2018-05-26T00:20:49.903Z,11.12
2018-05-26T00:23:16.690Z,11.70
2018-05-26T00:25:43.702Z,11.30
2018-05-26T00:28:11.466Z,12.05
2018-05-26T00:30:40.219Z,12.13
2018-05-26T00:33:07.370Z,11.23
2018-05-26T00:35:33.936Z,11.52
2018-05-26T00:38:01.655Z,10.63
2018-05-26T00:40:28.129Z,11.05
2018-05-26T00:42:55.615Z,10.70
2018-05-26T00:45:22.114Z,11.88
2018-05-26T00:47:48.699Z,11.23
2018-05-26T00:50:15.818Z,10.02
2018-05-26T00:52:42.397Z,10.93
2018-05-26T00:55:08.923Z,10.90
2018-05-26T00:57:35.471Z,12.35
2018-05-26T01:00:02.927Z,10.73
2018-05-26T01:02:29.494Z,10.95
2018-05-26T01:04:56.076Z,11.10
2018-05-26T01:07:23.143Z,11.07
2018-05-26T01:09:49.758Z,10.70
2018-05-26T01:12:16.533Z,10.60
2018-05-26T01:14:43.010Z,11.25
2018-05-26T01:17:09.844Z,12.13
2018-05-26T01:19:36.808Z,12.30
2018-05-26T01:22:03.931Z,11.68
2018-05-26T01:24:30.775Z,12.52
2018-05-26T01:26:57.679Z,11.88
2018-05-26T01:29:24.412Z,12.43
2018-05-26T01:31:50.878Z,12.60
2018-05-26T01:34:17.421Z,11.93
2018-05-26T01:36:44.008Z,12.37
2018-05-26T01:39:10.486Z,11.95
2018-05-26T01:41:37.339Z,11.75
2018-05-26T01:44:03.983Z,11.82
2018-05-26T01:46:30.755Z,12.60
2018-05-26T01:48:57.244Z,12.43
2018-05-26T01:51:25.431Z,12.07
2018-05-26T01:53:52.161Z,11.60
2018-05-26T01:56:18.706Z,12.23
2018-05-26T01:58:45.387Z,11.20
2018-05-26T02:01:12.070Z,11.82
2018-05-26T02:03:38.607Z,12.60
2018-05-26T02:06:05.195Z,11.68
2018-05-26T02:08:32.615Z,12.48
2018-05-26T02:10:59.185Z,11.55
2018-05-26T02:13:25.719Z,11.55
2018-05-26T02:15:52.257Z,11.15
2018-05-26T02:18:18.850Z,12.00
2018-05-26T02:20:45.692Z,11.20
2018-05-26T02:23:13.652Z,10.88
2018-05-26T02:25:40.555Z,11.50
2018-05-26T02:28:07.103Z,10.70
2018-05-26T02:30:33.720Z,9.98
2018-05-26T02:33:00.838Z,10.80
2018-05-26T02:35:28.113Z,10.45
2018-05-26T02:37:54.755Z,10.85
2018-05-26T02:40:21.295Z,10.65
2018-05-26T02:42:48.472Z,10.88
2018-05-26T02:45:17.492Z,9.57
2018-05-26T02:47:44.346Z,10.15
2018-05-26T02:50:11.058Z,10.35
2018-05-26T02:52:37.615Z,10.25
2018-05-26T02:55:06.351Z,10.88
2018-05-26T02:57:32.923Z,12.57
2018-05-26T02:59:59.392Z,11.77
2018-05-26T03:02:26.229Z,11.50
2018-05-26T03:04:58.772Z,11.80
2018-05-26T03:07:31.851Z,11.48
2018-05-26T03:10:04.887Z,11.10
2018-05-26T03:12:38.990Z,11.10
2018-05-26T03:15:05.872Z,11.48
2018-05-26T03:17:36.953Z,12.30
2018-05-26T03:20:03.725Z,11.43
2018-05-26T03:22:30.737Z,11.82
2018-05-26T03:24:57.329Z,11.48
2018-05-26T03:27:23.885Z,11.48
2018-05-26T03:29:52.127Z,12.15
2018-05-26T03:32:18.774Z,12.75
2018-05-26T03:34:45.274Z,11.65
2018-05-26T03:37:11.821Z,13.07
2018-05-26T03:39:38.731Z,13.05
2018-05-26T03:42:05.218Z,12.93
2018-05-26T03:44:31.771Z,13.05
2018-05-26T03:46:58.295Z,12.27
2018-05-26T03:49:29.459Z,12.15
2018-05-26T03:51:55.998Z,13.45
2018-05-26T03:54:35.216Z,13.20
2018-05-26T03:57:13.926Z,13.80
2018-05-26T03:59:52.613Z,13.25
2018-05-26T04:02:19.530Z,12.70
2018-05-26T04:04:46.180Z,12.90
2018-05-26T04:07:13.282Z,11.95
2018-05-26T04:09:39.775Z,10.35
2018-05-26T04:12:06.308Z,12.00
2018-05-26T04:14:32.883Z,12.25
2018-05-26T04:16:59.423Z,14.02
2018-05-26T04:19:27.219Z,13.15
2018-05-26T04:21:53.686Z,13.62
2018-05-26T04:24:20.507Z,12.52
2018-05-26T04:26:47.402Z,12.50
2018-05-26T04:29:14.008Z,11.75
2018-05-26T04:31:41.371Z,11.95
2018-05-26T04:34:07.903Z,12.85
2018-05-26T04:36:34.498Z,13.57
2018-05-26T04:39:01.359Z,12.27
2018-05-26T04:41:27.825Z,10.95
2018-05-26T04:43:54.443Z,11.60
2018-05-26T04:46:21.478Z,12.13
2018-05-26T04:48:48.067Z,12.98
2018-05-26T04:51:14.629Z,12.30
2018-05-26T04:53:41.086Z,11.25
2018-05-26T04:56:07.651Z,11.63
2018-05-26T04:58:34.149Z,11.93
2018-05-26T05:01:00.696Z,12.05
2018-05-26T05:03:27.295Z,12.25
2018-05-26T05:05:54.553Z,13.77
2018-05-26T05:08:21.286Z,12.20
2018-05-26T05:10:47.832Z,11.90
2018-05-26T05:13:15.218Z,10.80
2018-05-26T05:15:41.802Z,12.73
2018-05-26T05:18:08.399Z,11.65
2018-05-26T05:20:35.183Z,12.88
2018-05-26T05:23:01.714Z,12.82
2018-05-26T05:25:28.242Z,11.43
2018-05-26T05:27:54.850Z,12.20
2018-05-26T05:30:21.603Z,12.75
2018-05-26T05:32:48.221Z,11.27
2018-05-26T05:35:15.655Z,11.85
2018-05-26T05:37:42.840Z,12.63
2018-05-26T05:40:09.897Z,12.63
2018-05-26T05:42:37.698Z,13.80
2018-05-26T05:45:04.183Z,12.70
2018-05-26T05:47:31.006Z,11.93
2018-05-26T05:49:57.839Z,12.65
2018-05-26T05:52:24.441Z,10.35
2018-05-26T05:54:52.145Z,11.15
2018-05-26T05:57:18.675Z,17.33
2018-05-26T05:59:46.535Z,13.75
2018-05-26T06:02:13.316Z,13.80
2018-05-26T06:04:39.730Z,11.25
2018-05-26T06:07:06.386Z,9.27
2018-05-26T06:09:32.938Z,10.25
2018-05-26T06:11:59.508Z,10.82
2018-05-26T06:14:25.997Z,10.32
2018-05-26T06:16:52.500Z,10.68
2018-05-26T06:19:19.004Z,10.82
2018-05-26T06:21:45.666Z,10.82
2018-05-26T06:24:12.495Z,11.10
2018-05-26T06:26:38.942Z,10.95
2018-05-26T06:29:05.878Z,9.93
2018-05-26T06:31:33.087Z,10.20
2018-05-26T06:33:59.913Z,9.03
2018-05-26T06:36:26.709Z,8.80
2018-05-26T06:38:53.206Z,9.13
2018-05-26T06:41:19.775Z,8.53
2018-05-26T06:43:46.299Z,7.73
2018-05-26T06:46:12.760Z,9.17
2018-05-26T06:48:39.601Z,9.00
2018-05-26T06:51:06.218Z,6.73
2018-05-26T06:53:32.666Z,7.67
2018-05-26T06:56:00.130Z,8.10
2018-05-26T06:58:26.943Z,7.60
2018-05-26T07:00:53.535Z,8.70
2018-05-26T07:03:20.038Z,7.77
2018-05-26T07:05:46.651Z,7.50
2018-05-26T07:08:14.097Z,7.20
2018-05-26T07:10:42.141Z,6.77
2018-05-26T07:13:08.771Z,8.17
2018-05-26T07:15:36.086Z,8.10
2018-05-26T07:18:03.056Z,7.60
2018-05-26T07:20:30.164Z,6.67
2018-05-26T07:22:56.739Z,6.73
2018-05-26T07:25:23.446Z,6.23
2018-05-26T07:27:50.096Z,6.50
2018-05-26T07:30:16.846Z,7.27
2018-05-26T07:32:43.373Z,6.60
2018-05-26T07:35:09.936Z,7.63
2018-05-26T07:37:36.453Z,7.03
2018-05-26T07:40:03.333Z,6.77
2018-05-26T07:42:30.127Z,7.60
2018-05-26T07:44:56.724Z,6.80
2018-05-26T07:47:23.829Z,6.03
2018-05-26T07:49:50.346Z,7.70
2018-05-26T07:52:16.911Z,6.80
2018-05-26T07:54:44.964Z,7.37
2018-05-26T07:57:11.547Z,7.70
2018-05-26T07:59:38.029Z,6.57
2018-05-26T08:02:04.871Z,6.53
2018-05-26T08:04:31.417Z,6.60
2018-05-26T08:06:57.953Z,7.03
2018-05-26T08:09:24.498Z,7.70
2018-05-26T08:11:51.028Z,6.77
2018-05-26T08:14:17.575Z,7.33
2018-05-26T08:16:44.085Z,6.57
2018-05-26T08:19:10.938Z,7.10
2018-05-26T08:21:37.462Z,6.70
2018-05-26T08:24:03.882Z,7.07
2018-05-26T08:26:30.562Z,7.90
2018-05-26T08:28:57.092Z,8.17
2018-05-26T08:31:23.552Z,7.30
2018-05-26T08:33:50.594Z,6.83
2018-05-26T08:36:17.343Z,6.63
2018-05-26T08:38:43.812Z,7.20
2018-05-26T08:41:10.370Z,7.60
2018-05-26T08:43:38.380Z,7.70
2018-05-26T08:46:04.960Z,7.30
2018-05-26T08:48:31.526Z,7.37
2018-05-26T08:50:58.020Z,7.90
2018-05-26T08:53:24.643Z,7.53
2018-05-26T08:55:51.783Z,6.33
2018-05-26T08:58:18.344Z,6.90
2018-05-26T09:00:44.804Z,6.57
2018-05-26T09:03:11.378Z,6.90
2018-05-26T09:05:37.909Z,7.20
2018-05-26T09:08:05.049Z,6.30
2018-05-26T09:10:31.895Z,6.27
2018-05-26T09:12:58.481Z,6.13
2018-05-26T09:15:24.936Z,6.90
2018-05-26T09:17:51.486Z,8.40
2018-05-26T09:20:17.990Z,6.17
2018-05-26T09:22:44.533Z,6.67
2018-05-26T09:25:11.044Z,6.10
2018-05-26T09:27:37.626Z,5.67
2018-05-26T09:30:04.443Z,6.50
2018-05-26T09:32:30.932Z,8.27
2018-05-26T09:34:57.511Z,6.63
2018-05-26T09:37:24.034Z,6.40
2018-05-26T09:39:50.615Z,6.70
2018-05-26T09:42:17.130Z,5.73
2018-05-26T09:44:43.720Z,5.50
2018-05-26T09:47:10.230Z,6.43
2018-05-26T09:49:36.803Z,6.10
2018-05-26T09:52:04.191Z,7.33
2018-05-26T09:54:30.635Z,5.70
2018-05-26T09:56:57.282Z,5.80
2018-05-26T09:59:25.312Z,5.50
2018-05-26T10:01:52.927Z,6.30
2018-05-26T10:04:19.681Z,5.73
2018-05-26T10:06:47.427Z,6.47
2018-05-26T10:09:13.929Z,5.70
2018-05-26T10:11:40.433Z,5.93
2018-05-26T10:14:07.359Z,6.90
2018-05-26T10:16:33.849Z,4.87
2018-05-26T10:19:00.404Z,5.37
2018-05-26T10:21:28.159Z,5.60
2018-05-26T10:23:54.687Z,5.63
2018-05-26T10:26:21.128Z,4.80
2018-05-26T10:28:47.757Z,4.83
2018-05-26T10:31:16.425Z,5.20
2018-05-26T10:33:42.998Z,5.13
2018-05-26T10:36:09.830Z,5.37
2018-05-26T10:38:36.347Z,4.93
2018-05-26T10:41:02.899Z,5.10
2018-05-26T10:43:29.700Z,4.60
2018-05-26T10:46:08.238Z,6.07
2018-05-26T10:48:35.082Z,4.70
2018-05-26T10:51:01.655Z,4.90
2018-05-26T10:53:28.192Z,4.90
2018-05-26T10:55:55.319Z,5.10
2018-05-26T10:58:21.867Z,5.70
2018-05-26T11:00:48.380Z,5.67
2018-05-26T11:03:15.210Z,5.57
2018-05-26T11:05:41.735Z,5.30
2018-05-26T11:08:08.296Z,5.10
2018-05-26T11:10:34.838Z,5.80
2018-05-26T11:13:01.403Z,5.93
2018-05-26T11:15:27.892Z,4.90
2018-05-26T11:17:55.426Z,5.53
2018-05-26T11:20:21.925Z,5.37
2018-05-26T11:22:48.722Z,4.90
2018-05-26T11:25:15.238Z,4.67
2018-05-26T11:27:41.777Z,5.77
2018-05-26T11:30:08.202Z,5.43
2018-05-26T11:32:34.892Z,5.70
2018-05-26T11:35:01.456Z,4.93
2018-05-26T11:37:28.898Z,5.43
2018-05-26T11:39:57.297Z,5.10
2018-05-26T11:42:23.750Z,4.47
2018-05-26T11:44:51.227Z,6.40
2018-05-26T11:47:17.766Z,5.10
2018-05-26T11:49:44.307Z,4.83
2018-05-26T11:52:10.828Z,5.80
2018-05-26T11:54:37.360Z,5.73
2018-05-26T11:57:03.935Z,5.97
2018-05-26T11:59:30.415Z,6.87
2018-05-26T12:01:57.201Z,6.30
2018-05-26T12:04:23.794Z,8.27
2018-05-26T12:06:51.288Z,6.67
2018-05-26T12:09:17.816Z,6.20
2018-05-26T12:11:44.375Z,5.83
2018-05-26T12:14:11.479Z,5.63
2018-05-26T12:16:38.327Z,6.00
2018-05-26T12:19:04.774Z,5.40
2018-05-26T12:21:31.445Z,5.87
2018-05-26T12:23:57.873Z,6.27
2018-05-26T12:26:24.275Z,5.73
2018-05-26T12:28:51.048Z,6.13
2018-05-26T12:31:18.371Z,6.67
2018-05-26T12:33:45.039Z,7.00
2018-05-26T12:36:12.123Z,6.10
2018-05-26T12:38:38.718Z,6.33
2018-05-26T12:41:06.130Z,6.33
2018-05-26T12:43:32.686Z,6.77
2018-05-26T12:45:59.199Z,6.20
2018-05-26T12:48:25.764Z,5.73
2018-05-26T12:50:52.318Z,6.60
2018-05-26T12:53:19.726Z,6.50
2018-05-26T12:55:46.282Z,5.83
2018-05-26T12:58:12.827Z,6.00
2018-05-26T13:00:39.363Z,5.70
2018-05-26T13:03:05.866Z,5.90
2018-05-26T13:05:32.288Z,5.80
2018-05-26T13:07:59.043Z,5.57
2018-05-26T13:10:25.506Z,6.03
2018-05-26T13:12:52.346Z,6.50
2018-05-26T13:15:18.871Z,6.47
2018-05-26T13:17:45.735Z,5.83
2018-05-26T13:20:12.267Z,6.40
2018-05-26T13:22:38.811Z,6.50
2018-05-26T13:25:05.969Z,6.23
2018-05-26T13:27:33.094Z,6.10
2018-05-26T13:30:01.173Z,5.70
2018-05-26T13:32:27.686Z,6.87
2018-05-26T13:34:54.283Z,5.80
2018-05-26T13:37:20.728Z,5.73
2018-05-26T13:39:48.200Z,6.70
2018-05-26T13:42:15.142Z,7.00
2018-05-26T13:44:41.626Z,6.17
2018-05-26T13:47:08.132Z,5.87
2018-05-26T13:49:34.980Z,5.33
2018-05-26T13:52:01.799Z,6.10
2018-05-26T13:54:28.710Z,6.37
2018-05-26T13:56:55.223Z,5.73
2018-05-26T13:59:22.340Z,5.77
2018-05-26T14:01:48.848Z,6.10
2018-05-26T14:04:15.436Z,6.47
2018-05-26T14:06:41.971Z,6.60
2018-05-26T14:09:08.399Z,6.20
2018-05-26T14:11:35.018Z,6.87
2018-05-26T14:14:01.559Z,5.70
2018-05-26T14:16:28.095Z,6.30
2018-05-26T14:18:54.694Z,6.37
2018-05-26T14:21:22.390Z,6.47
2018-05-26T14:23:48.931Z,6.20
2018-05-26T14:26:15.669Z,6.37
2018-05-26T14:28:42.618Z,6.00
2018-05-26T14:31:09.179Z,6.43
2018-05-26T14:33:35.682Z,6.40
2018-05-26T14:36:02.249Z,7.73
2018-05-26T14:38:29.062Z,8.20
2018-05-26T14:40:56.311Z,5.97
2018-05-26T14:43:23.362Z,6.80
2018-05-26T14:45:49.925Z,7.23
2018-05-26T14:48:17.100Z,7.07
2018-05-26T14:50:43.608Z,6.63
2018-05-26T14:53:11.362Z,5.80
2018-05-26T14:55:38.922Z,6.67
2018-05-26T14:58:06.012Z,6.80
2018-05-26T15:00:33.102Z,6.83
2018-05-26T15:03:00.105Z,6.30
2018-05-26T15:05:27.052Z,6.70
2018-05-26T15:07:54.055Z,6.17
2018-05-26T15:10:20.567Z,7.40
2018-05-26T15:12:47.799Z,6.30
2018-05-26T15:15:14.842Z,8.50
2018-05-26T15:17:42.593Z,7.13
2018-05-26T15:20:09.124Z,8.00
2018-05-26T15:22:36.206Z,7.60
2018-05-26T15:25:02.842Z,7.03
2018-05-26T15:27:29.571Z,6.47
2018-05-26T15:29:57.968Z,5.90
2018-05-26T15:32:24.813Z,7.60
2018-05-26T15:34:51.423Z,6.00
2018-05-26T15:37:17.901Z,7.60
2018-05-26T15:39:44.442Z,7.43
2018-05-26T15:42:10.900Z,7.83
2018-05-26T15:44:37.718Z,8.33
2018-05-26T15:47:04.322Z,8.10
2018-05-26T15:49:30.936Z,6.97
2018-05-26T15:51:57.398Z,6.03
2018-05-26T15:54:23.974Z,7.53
2018-05-26T15:56:51.158Z,7.87
2018-05-26T15:59:17.630Z,8.33
2018-05-26T16:01:44.458Z,6.87
2018-05-26T16:04:11.023Z,6.87
2018-05-26T16:06:37.839Z,7.80
2018-05-26T16:09:04.441Z,7.07
2018-05-26T16:11:30.926Z,7.27
2018-05-26T16:13:57.479Z,7.53
2018-05-26T16:16:24.048Z,6.97
2018-05-26T16:18:50.511Z,7.67
2018-05-26T16:21:17.085Z,7.63
2018-05-26T16:23:43.624Z,7.10
2018-05-26T16:26:10.159Z,6.73
2018-05-26T16:28:36.647Z,6.60
2018-05-26T16:31:03.527Z,7.57
2018-05-26T16:33:30.080Z,6.70
2018-05-26T16:35:56.561Z,6.73
2018-05-26T16:38:23.099Z,7.43
2018-05-26T16:40:49.656Z,6.83
2018-05-26T16:43:16.193Z,7.40
2018-05-26T16:45:42.715Z,7.03
2018-05-26T16:48:09.262Z,8.37
2018-05-26T16:50:35.747Z,8.10
2018-05-26T16:53:02.622Z,7.80
2018-05-26T16:55:29.162Z,8.53
2018-05-26T16:57:55.670Z,8.57
2018-05-26T17:00:22.597Z,7.10
2018-05-26T17:02:49.212Z,7.60
2018-05-26T17:05:15.981Z,7.50
2018-05-26T17:07:42.846Z,8.10
2018-05-26T17:10:09.601Z,8.03
2018-05-26T17:12:36.160Z,7.00
2018-05-26T17:15:02.772Z,8.30
2018-05-26T17:17:30.734Z,7.83
2018-05-26T17:19:57.571Z,8.47
2018-05-26T17:22:24.114Z,8.67
2018-05-26T17:24:50.725Z,8.57
2018-05-26T17:27:18.723Z,8.30
2018-05-26T17:29:45.250Z,7.17
2018-05-26T17:32:12.108Z,7.90
2018-05-26T17:34:38.644Z,7.90
2018-05-26T17:37:05.084Z,6.87
2018-05-26T17:39:31.744Z,8.43
2018-05-26T17:41:59.771Z,7.63
2018-05-26T17:44:26.393Z,7.70
2018-05-26T17:46:53.298Z,8.67
2018-05-26T17:49:20.587Z,7.80
2018-05-26T17:51:47.483Z,8.80
2018-05-26T17:54:14.613Z,8.63
2018-05-26T17:56:41.601Z,8.37
2018-05-26T17:59:09.978Z,8.00
2018-05-26T18:01:36.657Z,8.00
2018-05-26T18:04:03.333Z,7.90
2018-05-26T18:06:30.386Z,8.13
2018-05-26T18:08:57.216Z,8.90
2018-05-26T18:11:23.726Z,8.30
2018-05-26T18:13:50.239Z,9.53
2018-05-26T18:16:17.122Z,8.67
2018-05-26T18:18:43.628Z,7.83
2018-05-26T18:21:11.487Z,8.00
2018-05-26T18:23:38.540Z,8.23
2018-05-26T18:26:05.410Z,8.00
2018-05-26T18:28:32.253Z,7.97
2018-05-26T18:30:58.895Z,6.23
2018-05-26T18:33:26.615Z,6.97
2018-05-26T18:35:53.477Z,7.47
2018-05-26T18:38:20.734Z,7.37
2018-05-26T18:40:47.802Z,7.03
2018-05-26T18:43:15.097Z,7.27
2018-05-26T18:45:42.012Z,7.80
2018-05-26T18:48:08.823Z,7.23
2018-05-26T18:50:37.156Z,6.97
2018-05-26T18:53:05.939Z,7.10
2018-05-26T18:55:33.345Z,8.00
2018-05-26T18:58:00.940Z,7.80
2018-05-26T19:00:27.955Z,7.70
2018-05-26T19:02:54.849Z,7.97
2018-05-26T19:05:21.965Z,8.27
2018-05-26T19:07:48.787Z,8.43
2018-05-26T19:10:15.739Z,7.83
2018-05-26T19:12:43.189Z,8.57
2018-05-26T19:15:10.277Z,9.07
2018-05-26T19:17:37.375Z,10.37
2018-05-26T19:20:04.283Z,9.07
2018-05-26T19:22:31.424Z,10.20
2018-05-26T19:24:58.615Z,10.07
2018-05-26T19:27:25.753Z,9.17
2018-05-26T19:29:52.541Z,9.97
2018-05-26T19:32:19.438Z,9.40
2018-05-26T19:34:46.773Z,9.17
2018-05-26T19:37:14.596Z,8.60
2018-05-26T19:39:42.720Z,10.20
2018-05-26T19:42:11.053Z,10.30
2018-05-26T19:44:37.947Z,9.50
2018-05-26T19:47:05.379Z,10.40
2018-05-26T19:49:32.792Z,8.83
2018-05-26T19:51:59.652Z,9.67
2018-05-26T19:54:26.542Z,8.90
2018-05-26T19:56:53.986Z,9.10
2018-05-26T19:59:21.148Z,9.00
2018-05-26T20:01:48.533Z,8.90
2018-05-26T20:04:16.572Z,9.67
2018-05-26T20:06:44.377Z,9.20
2018-05-26T20:09:12.254Z,9.40
2018-05-26T20:11:39.512Z,8.20
2018-05-26T20:14:06.758Z,8.90
2018-05-26T20:16:33.605Z,8.63
2018-05-26T20:19:00.438Z,7.90
2018-05-26T20:21:27.546Z,9.00
2018-05-26T20:23:56.134Z,7.60
2018-05-26T20:26:23.333Z,7.37
2018-05-26T20:28:50.265Z,8.00
2018-05-26T20:31:16.945Z,7.13
2018-05-26T20:33:43.802Z,8.00
2018-05-26T20:36:10.494Z,7.50
2018-05-26T20:38:37.081Z,8.27
2018-05-26T20:41:03.572Z,7.10
2018-05-26T20:43:30.035Z,7.93
2018-05-26T20:45:56.641Z,7.15
2018-05-26T20:48:23.162Z,7.60
2018-05-26T20:50:50.628Z,9.05
2018-05-26T20:53:18.351Z,8.03
2018-05-26T20:55:45.315Z,7.90
2018-05-26T20:58:13.381Z,7.53
2018-05-26T21:00:41.712Z,8.52
2018-05-26T21:03:08.527Z,7.80
2018-05-26T21:05:35.059Z,8.30
2018-05-26T21:08:01.496Z,9.00
2018-05-26T21:10:29.964Z,9.10
2018-05-26T21:12:58.020Z,9.20
2018-05-26T21:15:24.566Z,9.20
2018-05-26T21:17:51.096Z,8.90
2018-05-26T21:20:18.538Z,9.63
2018-05-26T21:22:45.175Z,9.00
2018-05-26T21:25:11.918Z,8.02
2018-05-26T21:27:38.789Z,9.60
2018-05-26T21:30:05.906Z,8.73
2018-05-26T21:32:32.505Z,9.30
2018-05-26T21:34:58.952Z,8.67
2018-05-26T21:37:25.510Z,8.90
2018-05-26T21:39:53.442Z,8.10
2018-05-26T21:42:20.438Z,8.45
2018-05-26T21:44:47.025Z,9.23
2018-05-26T21:47:13.529Z,9.30
2018-05-26T21:49:40.683Z,9.53
2018-05-26T21:52:07.245Z,9.02
2018-05-26T21:54:33.722Z,9.45
2018-05-26T21:57:00.255Z,9.03
2018-05-26T21:59:27.135Z,8.73
2018-05-26T22:01:53.647Z,9.90
2018-05-26T22:04:20.207Z,10.52
2018-05-26T22:06:46.742Z,10.40
2018-05-26T22:09:13.838Z,9.90
2018-05-26T22:11:40.722Z,8.57
2018-05-26T22:14:07.202Z,10.55
2018-05-26T22:16:33.788Z,10.27
2018-05-26T22:19:01.950Z,9.75
2018-05-26T22:21:28.686Z,11.50
2018-05-26T22:23:55.281Z,10.95
2018-05-26T22:26:21.731Z,11.05
2018-05-26T22:28:48.283Z,10.05
2018-05-26T22:31:15.725Z,9.75
2018-05-26T22:33:43.227Z,9.35
2018-05-26T22:36:09.716Z,10.90
2018-05-26T22:38:36.609Z,10.65
2018-05-26T22:41:03.479Z,9.52
2018-05-26T22:43:29.929Z,10.10
2018-05-26T22:45:56.780Z,9.18
2018-05-26T22:48:24.968Z,8.52
2018-05-26T22:50:51.714Z,7.90
2018-05-26T22:53:18.558Z,8.52
2018-05-26T22:55:45.058Z,7.37
2018-05-26T22:58:11.673Z,7.40
2018-05-26T23:00:40.400Z,7.43
2018-05-26T23:03:07.171Z,7.55
2018-05-26T23:05:33.616Z,7.37
2018-05-26T23:08:00.209Z,7.53
2018-05-26T23:10:27.973Z,7.47
2018-05-26T23:12:54.510Z,7.28
2018-05-26T23:15:21.451Z,6.97
2018-05-26T23:17:48.198Z,7.95
2018-05-26T23:20:14.738Z,7.32
2018-05-26T23:22:42.526Z,7.28
2018-05-26T23:25:09.075Z,7.60
2018-05-26T23:27:36.188Z,7.25
2018-05-26T23:30:03.035Z,7.45
2018-05-26T23:32:30.487Z,6.70
2018-05-26T23:34:57.032Z,8.38
2018-05-26T23:40:16.893Z,7.28
2018-05-26T23:42:43.332Z,6.87
2018-05-26T23:45:11.444Z,8.32
2018-05-26T23:47:38.016Z,6.90
2018-05-26T23:50:04.553Z,6.82
2018-05-26T23:52:31.001Z,8.00
2018-05-26T23:54:59.162Z,7.55
2018-05-26T23:57:25.610Z,6.55
2018-05-26T23:59:52.167Z,7.22
